createdAt,value
2022-12-08T00:00:03.041Z,11.20
2022-12-08T00:00:15.027Z,11.27
2022-12-08T00:00:26.956Z,10.52
2022-12-08T00:00:38.827Z,11.25
2022-12-08T00:00:50.627Z,11.70
2022-12-08T00:01:10.061Z,10.88
2022-12-08T00:01:24.390Z,10.40
2022-12-08T00:01:36.440Z,11.57
2022-12-08T00:01:48.437Z,11.95
2022-12-08T00:02:01.682Z,12.77
2022-12-08T00:02:14.073Z,12.65
2022-12-08T00:02:26.268Z,11.68
2022-12-08T00:02:38.450Z,9.60
2022-12-08T00:02:50.486Z,9.07
2022-12-08T00:03:02.487Z,9.13
2022-12-08T00:03:14.529Z,11.68
2022-12-08T00:03:26.650Z,13.30
2022-12-08T00:03:38.619Z,13.07
2022-12-08T00:03:50.689Z,11.68
2022-12-08T00:04:03.769Z,11.30
2022-12-08T00:04:15.557Z,10.75
2022-12-08T00:04:27.281Z,10.18
2022-12-08T00:04:59.427Z,9.20
2022-12-08T00:05:29.743Z,9.95
2022-12-08T00:06:07.024Z,10.98
2022-12-08T00:06:50.788Z,11.23
2022-12-08T00:07:21.143Z,10.95
2022-12-08T00:07:51.435Z,10.82
2022-12-08T00:08:21.546Z,11.95
2022-12-08T00:08:52.399Z,10.40
2022-12-08T00:09:22.354Z,10.50
2022-12-08T00:09:40.011Z,12.63
2022-12-08T00:09:51.783Z,10.40
2022-12-08T00:10:18.901Z,10.38
2022-12-08T00:10:51.038Z,13.43
2022-12-08T00:11:02.897Z,11.18
2022-12-08T00:11:14.842Z,14.23
2022-12-08T00:11:26.799Z,13.93
2022-12-08T00:11:39.519Z,11.63
2022-12-08T00:11:57.202Z,12.20
2022-12-08T00:12:15.112Z,11.30
2022-12-08T00:12:26.827Z,11.35
2022-12-08T00:12:39.000Z,10.55
2022-12-08T00:12:50.821Z,10.07
2022-12-08T00:13:02.650Z,10.07
2022-12-08T00:13:14.458Z,11.13
2022-12-08T00:13:26.282Z,10.98
2022-12-08T00:13:38.039Z,11.40
2022-12-08T00:13:49.793Z,12.23
2022-12-08T00:14:01.652Z,12.23
2022-12-08T00:14:13.534Z,11.43
2022-12-08T00:14:33.277Z,11.73
2022-12-08T00:14:46.572Z,11.05
2022-12-08T00:14:58.396Z,10.60
2022-12-08T00:15:10.387Z,10.70
2022-12-08T00:15:22.157Z,11.68
2022-12-08T00:15:33.892Z,11.75
2022-12-08T00:15:45.628Z,11.18
2022-12-08T00:16:00.922Z,10.50
2022-12-08T00:16:12.862Z,11.16
2022-12-08T00:16:24.753Z,11.75
2022-12-08T00:16:36.638Z,11.15
2022-12-08T00:16:48.518Z,11.82
2022-12-08T00:17:00.877Z,11.20
2022-12-08T00:17:14.228Z,11.40
2022-12-08T00:17:26.091Z,11.30
2022-12-08T00:17:37.840Z,11.23
2022-12-08T00:17:49.559Z,10.43
2022-12-08T00:18:01.619Z,10.20
2022-12-08T00:18:13.339Z,11.27
2022-12-08T00:18:25.071Z,12.38
2022-12-08T00:18:37.057Z,12.45
2022-12-08T00:18:48.802Z,12.25
2022-12-08T00:19:00.571Z,10.52
2022-12-08T00:19:12.390Z,11.68
2022-12-08T00:19:24.374Z,11.95
2022-12-08T00:19:39.038Z,12.32
2022-12-08T00:19:50.791Z,10.80
2022-12-08T00:20:02.613Z,10.35
2022-12-08T00:20:14.480Z,11.10
2022-12-08T00:20:26.211Z,11.45
2022-12-08T00:20:37.917Z,12.45
2022-12-08T00:20:56.392Z,11.98
2022-12-08T00:21:08.194Z,11.95
2022-12-08T00:21:19.912Z,10.75
2022-12-08T00:21:31.755Z,10.65
2022-12-08T00:21:43.553Z,10.25
2022-12-08T00:21:55.612Z,10.52
2022-12-08T00:22:08.681Z,10.52
2022-12-08T00:22:20.421Z,11.23
2022-12-08T00:22:32.353Z,11.00
2022-12-08T00:22:44.154Z,13.23
2022-12-08T00:22:55.924Z,14.40
2022-12-08T00:23:07.663Z,14.63
2022-12-08T00:23:19.469Z,12.13
2022-12-08T00:23:31.236Z,12.43
2022-12-08T00:23:43.007Z,12.20
2022-12-08T00:23:57.372Z,10.30
2022-12-08T00:24:09.151Z,9.06
2022-12-08T00:24:21.439Z,9.63
2022-12-08T00:24:35.565Z,11.63
2022-12-08T00:24:47.503Z,11.82
2022-12-08T00:24:59.284Z,11.48
2022-12-08T00:25:11.033Z,12.45
2022-12-08T00:25:22.898Z,12.52
2022-12-08T00:25:37.516Z,11.85
2022-12-08T00:25:49.320Z,11.43
2022-12-08T00:26:04.909Z,11.38
2022-12-08T00:26:16.710Z,12.15
2022-12-08T00:26:28.492Z,11.93
2022-12-08T00:26:40.363Z,11.40
2022-12-08T00:26:52.161Z,10.18
2022-12-08T00:27:04.167Z,10.00
2022-12-08T00:27:16.121Z,10.20
2022-12-08T00:27:27.880Z,12.07
2022-12-08T00:27:39.673Z,12.23
2022-12-08T00:27:51.533Z,11.28
2022-12-08T00:28:03.395Z,11.65
2022-12-08T00:28:15.191Z,10.10
2022-12-08T00:28:27.000Z,10.05
2022-12-08T00:28:38.858Z,10.70
2022-12-08T00:28:50.603Z,11.45
2022-12-08T00:29:02.465Z,11.60
2022-12-08T00:29:17.316Z,12.18
2022-12-08T00:29:29.693Z,11.07
2022-12-08T00:29:44.494Z,11.32
2022-12-08T00:29:56.610Z,11.98
2022-12-08T00:30:09.449Z,10.70
2022-12-08T00:30:21.218Z,9.70
2022-12-08T00:30:33.062Z,9.48
2022-12-08T00:30:44.953Z,10.13
2022-12-08T00:30:56.749Z,11.05
2022-12-08T00:31:10.029Z,11.45
2022-12-08T00:31:22.292Z,11.30
2022-12-08T00:31:34.213Z,10.77
2022-12-08T00:31:46.089Z,11.50
2022-12-08T00:31:57.988Z,11.50
2022-12-08T00:32:09.873Z,11.18
2022-12-08T00:32:21.816Z,10.13
2022-12-08T00:32:33.699Z,10.57
2022-12-08T00:32:45.512Z,11.02
2022-12-08T00:32:57.277Z,10.60
2022-12-08T00:33:09.664Z,11.90
2022-12-08T00:33:21.471Z,10.98
2022-12-08T00:33:33.267Z,10.80
2022-12-08T00:33:45.072Z,10.40
2022-12-08T00:33:56.881Z,12.18
2022-12-08T00:34:08.704Z,12.35
2022-12-08T00:34:20.675Z,10.25
2022-12-08T00:34:32.927Z,9.35
2022-12-08T00:34:44.707Z,9.80
2022-12-08T00:34:56.936Z,10.48
2022-12-08T00:35:09.079Z,10.38
2022-12-08T00:35:23.621Z,10.82
2022-12-08T00:35:38.771Z,10.98
2022-12-08T00:35:54.721Z,11.88
2022-12-08T00:36:12.259Z,12.75
2022-12-08T00:36:24.095Z,12.48
2022-12-08T00:36:35.837Z,12.00
2022-12-08T00:36:47.706Z,12.15
2022-12-08T00:36:59.493Z,12.40
2022-12-08T00:37:11.266Z,11.52
2022-12-08T00:37:23.020Z,10.80
2022-12-08T00:37:34.789Z,10.38
2022-12-08T00:37:46.571Z,10.15
2022-12-08T00:38:00.945Z,11.18
2022-12-08T00:38:13.011Z,11.95
2022-12-08T00:38:24.839Z,10.98
2022-12-08T00:38:37.025Z,10.90
2022-12-08T00:38:48.829Z,10.85
2022-12-08T00:39:00.596Z,11.15
2022-12-08T00:39:13.010Z,10.98
2022-12-08T00:39:24.841Z,10.73
2022-12-08T00:39:36.685Z,10.32
2022-12-08T00:39:48.523Z,9.80
2022-12-08T00:40:00.376Z,10.95
2022-12-08T00:40:12.411Z,10.23
2022-12-08T00:40:24.201Z,8.80
2022-12-08T00:40:36.002Z,8.04
2022-12-08T00:40:47.934Z,9.63
2022-12-08T00:40:59.690Z,10.38
2022-12-08T00:41:18.849Z,11.00
2022-12-08T00:41:49.154Z,10.77
2022-12-08T00:42:12.800Z,12.07
2022-12-08T00:42:24.641Z,11.10
2022-12-08T00:42:36.396Z,11.50
2022-12-08T00:42:48.186Z,10.68
2022-12-08T00:42:59.945Z,10.63
2022-12-08T00:43:11.727Z,11.20
2022-12-08T00:43:23.499Z,11.80
2022-12-08T00:43:35.289Z,11.40
2022-12-08T00:43:47.075Z,11.35
2022-12-08T00:43:58.879Z,12.27
2022-12-08T00:44:13.037Z,12.00
2022-12-08T00:44:25.011Z,11.15
2022-12-08T00:44:36.815Z,11.05
2022-12-08T00:44:48.666Z,11.52
2022-12-08T00:45:00.399Z,12.05
2022-12-08T00:45:12.504Z,11.48
2022-12-08T00:45:25.366Z,10.23
2022-12-08T00:45:37.706Z,10.85
2022-12-08T00:45:49.542Z,11.57
2022-12-08T00:46:01.409Z,13.05
2022-12-08T00:46:13.279Z,14.45
2022-12-08T00:46:25.191Z,12.80
2022-12-08T00:46:37.209Z,11.27
2022-12-08T00:46:49.120Z,10.82
2022-12-08T00:47:00.959Z,10.77
2022-12-08T00:47:13.057Z,11.05
2022-12-08T00:47:25.206Z,10.55
2022-12-08T00:47:37.140Z,9.57
2022-12-08T00:47:48.915Z,10.38
2022-12-08T00:48:00.665Z,11.80
2022-12-08T00:48:12.429Z,11.82
2022-12-08T00:48:24.160Z,11.85
2022-12-08T00:48:36.107Z,11.30
2022-12-08T00:48:47.896Z,12.45
2022-12-08T00:48:59.676Z,12.63
2022-12-08T00:49:11.828Z,11.35
2022-12-08T00:49:23.703Z,11.27
2022-12-08T00:49:35.554Z,10.38
2022-12-08T00:49:47.303Z,11.45
2022-12-08T00:49:59.028Z,12.20
2022-12-08T00:50:11.084Z,12.70
2022-12-08T00:50:22.819Z,10.70
2022-12-08T00:50:34.803Z,10.57
2022-12-08T00:50:46.670Z,12.07
2022-12-08T00:50:58.392Z,12.30
2022-12-08T00:51:10.179Z,11.13
2022-12-08T00:51:21.903Z,11.43
2022-12-08T00:51:33.887Z,11.90
2022-12-08T00:51:45.783Z,12.88
2022-12-08T00:51:57.543Z,14.25
2022-12-08T00:52:09.352Z,14.13
2022-12-08T00:52:21.083Z,11.43
2022-12-08T00:52:32.906Z,11.07
2022-12-08T00:52:44.726Z,11.52
2022-12-08T00:52:56.546Z,11.35
2022-12-08T00:53:08.350Z,11.10
2022-12-08T00:53:20.154Z,12.05
2022-12-08T00:53:32.317Z,12.93
2022-12-08T00:53:44.073Z,13.90
2022-12-08T00:53:55.892Z,13.70
2022-12-08T00:54:07.865Z,12.68
2022-12-08T00:54:19.743Z,10.75
2022-12-08T00:54:31.574Z,9.85
2022-12-08T00:54:43.307Z,10.48
2022-12-08T00:54:55.081Z,10.35
2022-12-08T00:55:07.359Z,10.20
2022-12-08T00:55:19.174Z,9.70
2022-12-08T00:55:30.963Z,12.20
2022-12-08T00:55:43.345Z,13.77
2022-12-08T00:55:55.511Z,13.75
2022-12-08T00:56:07.675Z,12.02
2022-12-08T00:56:19.427Z,11.05
2022-12-08T00:56:31.406Z,9.88
2022-12-08T00:56:43.218Z,9.85
2022-12-08T00:56:55.061Z,9.82
2022-12-08T00:57:06.915Z,10.32
2022-12-08T00:57:18.679Z,10.63
2022-12-08T00:57:30.634Z,11.93
2022-12-08T00:57:42.400Z,12.25
2022-12-08T00:57:54.150Z,11.00
2022-12-08T00:58:05.936Z,11.13
2022-12-08T00:58:17.666Z,11.40
2022-12-08T00:58:29.444Z,12.45
2022-12-08T00:58:42.678Z,12.57
2022-12-08T00:58:54.771Z,13.52
2022-12-08T00:59:07.749Z,13.13
2022-12-08T00:59:19.597Z,11.75
2022-12-08T00:59:31.409Z,10.94
2022-12-08T00:59:43.198Z,12.00
2022-12-08T00:59:55.022Z,12.32
2022-12-08T01:00:07.867Z,13.73
2022-12-08T01:00:20.304Z,14.07
2022-12-08T01:00:32.372Z,13.32
2022-12-08T01:00:44.398Z,12.15
2022-12-08T01:00:56.419Z,13.18
2022-12-08T01:01:14.530Z,13.23
2022-12-08T01:01:26.703Z,12.25
2022-12-08T01:01:38.508Z,11.50
2022-12-08T01:01:50.414Z,10.25
2022-12-08T01:02:02.268Z,9.65
2022-12-08T01:02:14.020Z,10.40
2022-12-08T01:02:25.848Z,10.60
2022-12-08T01:02:37.690Z,10.50
2022-12-08T01:02:49.858Z,10.63
2022-12-08T01:03:01.768Z,11.36
2022-12-08T01:03:13.750Z,12.88
2022-12-08T01:03:25.700Z,14.80
2022-12-08T01:03:37.683Z,12.68
2022-12-08T01:03:49.562Z,12.43
2022-12-08T01:04:08.906Z,11.60
2022-12-08T01:04:20.799Z,12.07
2022-12-08T01:04:32.581Z,13.40
2022-12-08T01:04:44.585Z,13.82
2022-12-08T01:04:56.348Z,13.27
2022-12-08T01:05:08.464Z,15.95
2022-12-08T01:05:20.228Z,16.38
2022-12-08T01:05:31.984Z,14.75
2022-12-08T01:05:44.463Z,11.65
2022-12-08T01:05:56.305Z,12.15
2022-12-08T01:06:08.490Z,11.30
2022-12-08T01:06:20.408Z,10.30
2022-12-08T01:06:32.338Z,11.07
2022-12-08T01:06:44.423Z,13.27
2022-12-08T01:06:56.197Z,14.60
2022-12-08T01:07:08.198Z,14.38
2022-12-08T01:07:20.027Z,11.80
2022-12-08T01:07:32.112Z,11.16
2022-12-08T01:07:43.997Z,11.32
2022-12-08T01:07:55.857Z,10.80
2022-12-08T01:08:08.654Z,11.38
2022-12-08T01:08:20.521Z,12.52
2022-12-08T01:08:32.718Z,13.13
2022-12-08T01:08:44.517Z,11.85
2022-12-08T01:08:56.252Z,11.80
2022-12-08T01:09:08.476Z,12.63
2022-12-08T01:09:20.314Z,13.32
2022-12-08T01:09:32.632Z,14.32
2022-12-08T01:09:44.434Z,14.05
2022-12-08T01:09:57.745Z,13.68
2022-12-08T01:10:09.788Z,12.68
2022-12-08T01:10:21.581Z,13.02
2022-12-08T01:10:36.369Z,12.68
2022-12-08T01:10:48.088Z,11.23
2022-12-08T01:11:14.439Z,11.35
2022-12-08T01:11:26.235Z,12.18
2022-12-08T01:11:38.035Z,12.54
2022-12-08T01:11:49.851Z,11.02
2022-12-08T01:12:01.670Z,10.73
2022-12-08T01:12:13.488Z,10.48
2022-12-08T01:12:25.268Z,10.95
2022-12-08T01:12:37.143Z,10.82
2022-12-08T01:12:48.888Z,12.57
2022-12-08T01:13:00.636Z,12.75
2022-12-08T01:13:12.450Z,11.63
2022-12-08T01:13:24.250Z,12.88
2022-12-08T01:13:36.113Z,14.00
2022-12-08T01:13:47.967Z,13.55
2022-12-08T01:13:59.850Z,12.70
2022-12-08T01:14:12.477Z,12.10
2022-12-08T01:14:24.220Z,13.68
2022-12-08T01:14:37.039Z,14.55
2022-12-08T01:14:48.841Z,14.63
2022-12-08T01:15:02.485Z,14.10
2022-12-08T01:15:14.694Z,13.35
2022-12-08T01:15:26.596Z,12.85
2022-12-08T01:15:38.364Z,11.90
2022-12-08T01:15:50.122Z,11.93
2022-12-08T01:16:01.951Z,11.02
2022-12-08T01:16:31.375Z,11.48
2022-12-08T01:16:43.520Z,13.38
2022-12-08T01:16:55.462Z,11.25
2022-12-08T01:17:07.352Z,12.55
2022-12-08T01:17:19.277Z,13.13
2022-12-08T01:17:31.408Z,13.48
2022-12-08T01:17:43.159Z,12.73
2022-12-08T01:17:54.984Z,12.35
2022-12-08T01:18:06.727Z,12.52
2022-12-08T01:18:18.544Z,12.52
2022-12-08T01:18:30.774Z,10.93
2022-12-08T01:18:42.565Z,10.75
2022-12-08T01:18:54.652Z,11.48
2022-12-08T01:19:06.383Z,11.50
2022-12-08T01:19:18.205Z,11.55
2022-12-08T01:19:30.908Z,10.27
2022-12-08T01:19:42.652Z,12.20
2022-12-08T01:19:54.412Z,12.57
2022-12-08T01:20:07.388Z,13.77
2022-12-08T01:20:19.219Z,15.00
2022-12-08T01:20:31.059Z,15.75
2022-12-08T01:20:42.881Z,17.00
2022-12-08T01:20:54.823Z,14.82
2022-12-08T01:21:07.148Z,15.43
2022-12-08T01:21:19.137Z,13.82
2022-12-08T01:21:30.931Z,11.70
2022-12-08T01:21:43.106Z,13.38
2022-12-08T01:21:55.181Z,13.73
2022-12-08T01:22:06.975Z,12.52
2022-12-08T01:22:18.712Z,11.05
2022-12-08T01:22:30.485Z,10.88
2022-12-08T01:22:42.200Z,11.10
2022-12-08T01:22:53.989Z,11.48
2022-12-08T01:23:05.746Z,12.43
2022-12-08T01:23:17.546Z,11.68
2022-12-08T01:23:29.324Z,12.40
2022-12-08T01:23:41.081Z,13.45
2022-12-08T01:23:52.909Z,14.30
2022-12-08T01:24:05.214Z,14.55
2022-12-08T01:24:21.076Z,12.43
2022-12-08T01:24:32.931Z,12.85
2022-12-08T01:24:44.715Z,12.45
2022-12-08T01:24:56.519Z,12.75
2022-12-08T01:25:08.858Z,11.63
2022-12-08T01:25:20.663Z,12.32
2022-12-08T01:25:34.681Z,13.18
2022-12-08T01:25:46.488Z,12.85
2022-12-08T01:26:03.676Z,11.30
2022-12-08T01:26:16.504Z,11.75
2022-12-08T01:26:28.374Z,11.90
2022-12-08T01:26:40.236Z,11.57
2022-12-08T01:26:52.033Z,11.18
2022-12-08T01:27:03.957Z,11.88
2022-12-08T01:27:16.364Z,11.93
2022-12-08T01:27:28.199Z,11.38
2022-12-08T01:27:39.956Z,12.25
2022-12-08T01:27:53.558Z,13.43
2022-12-08T01:28:05.465Z,14.43
2022-12-08T01:28:17.257Z,12.93
2022-12-08T01:28:29.745Z,12.00
2022-12-08T01:28:41.741Z,11.77
2022-12-08T01:28:53.518Z,11.50
2022-12-08T01:29:08.309Z,11.02
2022-12-08T01:29:20.152Z,11.32
2022-12-08T01:29:31.971Z,12.07
2022-12-08T01:29:43.752Z,12.10
2022-12-08T01:29:55.497Z,11.45
2022-12-08T01:30:08.346Z,11.52
2022-12-08T01:30:21.227Z,11.93
2022-12-08T01:30:33.152Z,12.65
2022-12-08T01:30:44.983Z,11.73
2022-12-08T01:30:57.896Z,11.70
2022-12-08T01:31:20.182Z,11.07
2022-12-08T01:31:32.025Z,11.85
2022-12-08T01:31:43.813Z,12.50
2022-12-08T01:31:55.684Z,11.65
2022-12-08T01:32:09.024Z,10.77
2022-12-08T01:32:20.826Z,12.30
2022-12-08T01:32:32.585Z,12.70
2022-12-08T01:32:44.485Z,11.40
2022-12-08T01:32:56.748Z,10.27
2022-12-08T01:33:08.577Z,11.32
2022-12-08T01:33:20.288Z,15.23
2022-12-08T01:33:32.132Z,15.13
2022-12-08T01:33:44.087Z,12.95
2022-12-08T01:33:55.839Z,12.93
2022-12-08T01:34:08.332Z,11.27
2022-12-08T01:34:20.061Z,11.57
2022-12-08T01:34:31.851Z,13.15
2022-12-08T01:34:43.643Z,13.88
2022-12-08T01:34:55.465Z,12.55
2022-12-08T01:35:07.636Z,11.80
2022-12-08T01:35:19.379Z,12.90
2022-12-08T01:35:31.210Z,14.20
2022-12-08T01:35:42.943Z,14.35
2022-12-08T01:35:55.437Z,13.45
2022-12-08T01:36:08.209Z,12.70
2022-12-08T01:36:23.302Z,11.23
2022-12-08T01:36:38.463Z,11.82
2022-12-08T01:36:50.357Z,11.75
2022-12-08T01:37:02.168Z,11.48
2022-12-08T01:37:13.947Z,11.77
2022-12-08T01:37:25.751Z,11.13
2022-12-08T01:37:37.552Z,11.63
2022-12-08T01:37:50.649Z,14.65
2022-12-08T01:38:02.391Z,15.00
2022-12-08T01:38:14.221Z,13.10
2022-12-08T01:38:25.948Z,13.30
2022-12-08T01:38:37.806Z,12.75
2022-12-08T01:38:50.173Z,11.98
2022-12-08T01:39:02.067Z,11.05
2022-12-08T01:39:18.012Z,11.70
2022-12-08T01:39:30.615Z,12.40
2022-12-08T01:39:42.487Z,12.68
2022-12-08T01:39:54.286Z,11.57
2022-12-08T01:40:07.549Z,12.38
2022-12-08T01:40:19.521Z,12.10
2022-12-08T01:40:31.334Z,11.70
2022-12-08T01:40:43.477Z,11.25
2022-12-08T01:40:55.293Z,10.40
2022-12-08T01:41:07.107Z,11.43
2022-12-08T01:41:21.675Z,11.90
2022-12-08T01:41:37.591Z,11.85
2022-12-08T01:41:49.913Z,12.18
2022-12-08T01:42:01.738Z,11.95
2022-12-08T01:42:23.137Z,11.63
2022-12-08T01:42:38.226Z,12.40
2022-12-08T01:42:50.143Z,10.75
2022-12-08T01:43:01.969Z,10.70
2022-12-08T01:43:19.082Z,11.60
2022-12-08T01:44:10.643Z,13.18
2022-12-08T01:44:22.368Z,13.15
2022-12-08T01:44:34.197Z,12.15
2022-12-08T01:44:45.928Z,12.18
2022-12-08T01:45:02.940Z,12.15
2022-12-08T01:45:36.063Z,11.00
2022-12-08T01:45:48.135Z,13.48
2022-12-08T01:46:00.101Z,13.65
2022-12-08T01:46:11.907Z,13.27
2022-12-08T01:46:24.538Z,13.43
2022-12-08T01:46:38.519Z,13.80
2022-12-08T01:46:50.357Z,12.93
2022-12-08T01:47:02.116Z,12.85
2022-12-08T01:47:13.907Z,12.95
2022-12-08T01:47:30.054Z,12.32
2022-12-08T01:47:45.211Z,12.82
2022-12-08T01:48:04.474Z,12.13
2022-12-08T01:48:27.113Z,10.80
2022-12-08T01:48:38.880Z,12.48
2022-12-08T01:49:10.813Z,12.80
2022-12-08T01:49:28.400Z,12.05
2022-12-08T01:49:40.135Z,13.00
2022-12-08T01:49:51.935Z,12.98
2022-12-08T01:50:05.727Z,12.90
2022-12-08T01:50:17.844Z,12.90
2022-12-08T01:50:29.702Z,13.38
2022-12-08T01:50:42.165Z,12.63
2022-12-08T01:50:54.447Z,11.48
2022-12-08T01:51:06.382Z,11.68
2022-12-08T01:51:18.220Z,11.95
2022-12-08T01:51:32.281Z,11.38
2022-12-08T01:52:11.899Z,11.55
2022-12-08T01:52:35.650Z,10.90
2022-12-08T01:53:17.026Z,12.50
2022-12-08T01:53:32.729Z,11.57
2022-12-08T01:53:44.520Z,11.15
2022-12-08T01:53:56.245Z,12.50
2022-12-08T01:54:08.490Z,12.77
2022-12-08T01:54:20.580Z,11.82
2022-12-08T01:54:34.953Z,12.07
2022-12-08T01:54:57.037Z,12.40
2022-12-08T01:55:22.754Z,11.93
2022-12-08T01:55:42.476Z,13.27
2022-12-08T01:55:58.014Z,13.45
2022-12-08T01:56:14.957Z,12.75
2022-12-08T01:56:34.432Z,13.18
2022-12-08T01:56:48.568Z,11.98
2022-12-08T01:57:17.087Z,13.15
2022-12-08T01:57:36.036Z,11.68
2022-12-08T01:57:50.170Z,13.07
2022-12-08T01:58:12.423Z,12.48
2022-12-08T01:58:31.216Z,12.57
2022-12-08T01:58:46.730Z,11.90
2022-12-08T01:58:58.516Z,11.07
2022-12-08T01:59:10.866Z,11.77
2022-12-08T01:59:22.699Z,12.52
2022-12-08T01:59:37.148Z,12.65
2022-12-08T01:59:55.194Z,12.05
2022-12-08T02:00:10.634Z,11.40
2022-12-08T02:00:22.547Z,12.12
2022-12-08T02:00:34.449Z,13.13
2022-12-08T02:00:46.601Z,13.82
2022-12-08T02:00:58.487Z,13.52
2022-12-08T02:01:10.793Z,12.05
2022-12-08T02:01:22.754Z,11.98
2022-12-08T02:01:34.761Z,10.43
2022-12-08T02:01:46.615Z,11.57
2022-12-08T02:01:58.429Z,13.52
2022-12-08T02:02:10.720Z,14.30
2022-12-08T02:02:22.659Z,12.80
2022-12-08T02:02:50.160Z,13.23
2022-12-08T02:03:09.234Z,12.88
2022-12-08T02:03:53.135Z,13.63
2022-12-08T02:04:05.523Z,13.63
2022-12-08T02:04:17.292Z,13.85
2022-12-08T02:04:29.087Z,13.02
2022-12-08T02:04:40.846Z,11.73
2022-12-08T02:04:52.675Z,10.98
2022-12-08T02:05:05.711Z,11.30
2022-12-08T02:05:18.928Z,12.68
2022-12-08T02:05:37.771Z,13.90
2022-12-08T02:05:49.582Z,13.23
2022-12-08T02:06:01.903Z,12.27
2022-12-08T02:06:13.733Z,12.13
2022-12-08T02:06:27.361Z,12.32
2022-12-08T02:06:41.374Z,13.48
2022-12-08T02:06:53.091Z,13.98
2022-12-08T02:07:07.935Z,12.68
2022-12-08T02:07:20.094Z,10.70
2022-12-08T02:07:31.892Z,11.93
2022-12-08T02:07:43.920Z,13.38
2022-12-08T02:07:56.096Z,13.80
2022-12-08T02:08:10.539Z,12.98
2022-12-08T02:08:22.410Z,12.40
2022-12-08T02:08:34.975Z,12.05
2022-12-08T02:08:46.757Z,10.57
2022-12-08T02:08:59.417Z,12.07
2022-12-08T02:09:11.247Z,13.85
2022-12-08T02:09:23.068Z,13.40
2022-12-08T02:09:35.735Z,12.68
2022-12-08T02:09:47.504Z,12.18
2022-12-08T02:09:59.285Z,12.07
2022-12-08T02:10:12.422Z,11.65
2022-12-08T02:10:25.355Z,10.82
2022-12-08T02:10:40.520Z,12.38
2022-12-08T02:10:52.913Z,13.95
2022-12-08T02:11:09.113Z,12.35
2022-12-08T02:11:21.058Z,12.50
2022-12-08T02:11:32.944Z,13.38
2022-12-08T02:11:44.737Z,12.20
2022-12-08T02:11:56.803Z,12.02
2022-12-08T02:12:08.897Z,11.70
2022-12-08T02:12:20.698Z,11.25
2022-12-08T02:12:32.484Z,10.65
2022-12-08T02:12:44.442Z,10.57
2022-12-08T02:12:57.075Z,11.52
2022-12-08T02:13:15.247Z,12.68
2022-12-08T02:13:27.069Z,12.73
2022-12-08T02:13:40.108Z,11.90
2022-12-08T02:13:52.184Z,12.15
2022-12-08T02:14:05.774Z,12.15
2022-12-08T02:14:17.516Z,11.52
2022-12-08T02:14:29.273Z,11.38
2022-12-08T02:14:41.096Z,11.55
2022-12-08T02:14:52.881Z,12.45
2022-12-08T02:15:05.770Z,12.35
2022-12-08T02:15:18.037Z,12.95
2022-12-08T02:16:08.249Z,12.93
2022-12-08T02:16:38.604Z,12.18
2022-12-08T02:17:14.014Z,13.15
2022-12-08T02:17:58.837Z,14.00
2022-12-08T02:18:26.255Z,11.82
2022-12-08T02:19:30.230Z,11.65
2022-12-08T02:20:17.097Z,11.40
2022-12-08T02:20:42.492Z,13.07
2022-12-08T02:21:09.229Z,11.75
2022-12-08T02:21:38.122Z,11.50
2022-12-08T02:22:09.345Z,11.02
2022-12-08T02:23:00.679Z,13.65
2022-12-08T02:23:30.928Z,12.88
2022-12-08T02:24:31.311Z,13.10
2022-12-08T02:25:04.568Z,12.15
2022-12-08T02:25:28.103Z,11.63
2022-12-08T02:25:57.730Z,11.32
2022-12-08T02:27:01.648Z,11.52
2022-12-08T02:27:33.965Z,12.10
2022-12-08T02:28:15.822Z,14.32
2022-12-08T02:29:34.597Z,12.95
2022-12-08T02:30:13.714Z,12.48
2022-12-08T02:31:05.951Z,11.90
2022-12-08T02:31:45.544Z,12.35
2022-12-08T02:32:15.236Z,12.35
2022-12-08T02:33:25.239Z,11.43
2022-12-08T02:34:04.263Z,12.27
2022-12-08T02:34:17.808Z,11.50
2022-12-08T02:34:56.403Z,11.63
2022-12-08T02:35:27.524Z,11.85
2022-12-08T02:35:45.214Z,12.38
2022-12-08T02:36:24.565Z,11.50
2022-12-08T02:36:57.543Z,11.88
2022-12-08T02:37:26.197Z,13.55
2022-12-08T02:38:13.016Z,12.00
2022-12-08T02:50:23.101Z,8.30
2022-12-08T02:50:34.941Z,8.38
2022-12-08T02:50:46.701Z,9.60
2022-12-08T02:50:58.511Z,10.00
2022-12-08T02:51:10.314Z,11.48
2022-12-08T02:51:22.095Z,11.05
2022-12-08T02:51:33.927Z,10.00
2022-12-08T02:51:45.702Z,10.48
2022-12-08T02:52:12.497Z,11.43
2022-12-08T02:52:24.286Z,10.80
2022-12-08T02:52:44.107Z,12.13
2022-12-08T02:52:55.851Z,13.13
2022-12-08T02:53:18.891Z,11.55
2022-12-08T02:53:31.935Z,10.48
2022-12-08T02:53:43.683Z,10.20
2022-12-08T02:53:55.401Z,9.98
2022-12-08T02:54:07.179Z,11.15
2022-12-08T02:54:18.916Z,11.68
2022-12-08T02:54:30.712Z,10.65
2022-12-08T02:54:55.788Z,12.18
2022-12-08T02:55:14.915Z,14.00
2022-12-08T02:56:21.911Z,11.65
2022-12-08T02:57:00.548Z,12.25
2022-12-08T02:57:33.316Z,9.95
2022-12-08T02:58:11.005Z,11.38
2022-12-08T02:58:57.684Z,10.70
2022-12-08T02:59:48.124Z,11.80
2022-12-08T03:00:09.833Z,12.68
2022-12-08T03:00:23.364Z,11.63
2022-12-08T03:00:57.173Z,12.57
2022-12-08T03:02:03.006Z,11.60
2022-12-08T03:12:19.365Z,7.88
2022-12-08T03:12:53.838Z,10.25
2022-12-08T03:13:17.607Z,13.23
2022-12-08T03:13:41.868Z,10.98
2022-12-08T03:13:56.484Z,10.65
2022-12-08T03:14:08.865Z,10.32
2022-12-08T03:14:20.629Z,9.93
2022-12-08T03:14:32.427Z,10.98
2022-12-08T03:14:48.118Z,11.52
2022-12-08T03:15:08.079Z,11.77
2022-12-08T03:15:20.468Z,12.65
2022-12-08T03:15:32.256Z,12.80
2022-12-08T03:15:46.814Z,12.00
2022-12-08T03:15:58.643Z,10.00
2022-12-08T03:16:11.855Z,9.05
2022-12-08T03:16:26.665Z,9.73
2022-12-08T03:16:39.402Z,11.65
2022-12-08T03:16:53.799Z,10.98
2022-12-08T03:17:05.528Z,9.88
2022-12-08T03:17:17.610Z,10.77
2022-12-08T03:17:29.805Z,10.98
2022-12-08T03:17:45.011Z,10.35
2022-12-08T03:17:58.324Z,9.32
2022-12-08T03:18:11.255Z,10.38
2022-12-08T03:18:27.330Z,11.25
2022-12-08T03:18:44.214Z,11.10
2022-12-08T03:19:13.831Z,11.20
2022-12-08T03:19:29.797Z,10.90
2022-12-08T03:19:42.150Z,11.40
2022-12-08T03:19:54.462Z,11.60
2022-12-08T03:20:10.100Z,10.93
2022-12-08T03:20:24.327Z,10.57
2022-12-08T03:20:36.211Z,12.35
2022-12-08T03:20:48.044Z,12.00
2022-12-08T03:20:59.842Z,10.65
2022-12-08T03:21:12.539Z,9.88
2022-12-08T03:21:24.304Z,12.65
2022-12-08T03:21:36.181Z,12.70
2022-12-08T03:21:51.756Z,12.82
2022-12-08T03:22:04.670Z,11.75
2022-12-08T03:22:20.041Z,11.76
2022-12-08T03:22:31.846Z,12.70
2022-12-08T03:22:43.639Z,12.38
2022-12-08T03:22:57.151Z,12.80
2022-12-08T03:23:10.880Z,12.32
2022-12-08T03:23:22.752Z,11.65
2022-12-08T03:23:36.549Z,10.75
2022-12-08T03:23:50.857Z,11.07
2022-12-08T03:24:04.717Z,11.15
2022-12-08T03:24:16.562Z,11.40
2022-12-08T03:24:36.472Z,12.30
2022-12-08T03:24:48.331Z,11.02
2022-12-08T03:25:00.250Z,11.00
2022-12-08T03:25:14.108Z,12.30
2022-12-08T03:25:28.186Z,11.85
2022-12-08T03:25:46.412Z,9.55
2022-12-08T03:26:57.697Z,12.18
2022-12-08T03:27:23.616Z,10.57
2022-12-08T03:27:35.436Z,11.35
2022-12-08T03:27:47.223Z,13.07
2022-12-08T03:27:59.604Z,11.95
2022-12-08T03:28:12.710Z,12.13
2022-12-08T03:28:24.468Z,11.35
2022-12-08T03:28:36.215Z,10.98
2022-12-08T03:28:48.012Z,10.25
2022-12-08T03:28:59.854Z,10.68
2022-12-08T03:29:11.607Z,10.77
2022-12-08T03:29:23.585Z,12.23
2022-12-08T03:29:35.428Z,13.30
2022-12-08T03:29:48.403Z,12.98
2022-12-08T03:30:00.186Z,12.40
2022-12-08T03:30:12.591Z,11.43
2022-12-08T03:30:24.384Z,11.68
2022-12-08T03:30:39.250Z,11.75
2022-12-08T03:30:52.218Z,10.25
2022-12-08T03:31:07.314Z,10.52
2022-12-08T03:31:19.221Z,11.50
2022-12-08T03:31:34.108Z,11.30
2022-12-08T03:31:54.063Z,11.52
2022-12-08T03:32:41.415Z,11.77
2022-12-08T03:33:08.995Z,9.38
2022-12-08T03:33:25.490Z,10.02
2022-12-08T03:33:38.478Z,10.25
2022-12-08T03:33:51.475Z,10.68
2022-12-08T03:34:03.405Z,11.45
2022-12-08T03:34:15.216Z,11.25
2022-12-08T03:34:28.241Z,9.88
2022-12-08T03:34:40.466Z,10.60
2022-12-08T03:34:53.066Z,10.90
2022-12-08T03:35:11.006Z,9.70
2022-12-08T03:35:28.011Z,10.98
2022-12-08T03:35:40.098Z,11.82
2022-12-08T03:35:51.875Z,11.02
2022-12-08T03:36:05.145Z,11.63
2022-12-08T03:36:16.953Z,11.60
2022-12-08T03:36:28.830Z,11.80
2022-12-08T03:36:40.701Z,9.90
2022-12-08T03:36:52.520Z,11.00
2022-12-08T03:37:04.380Z,13.18
2022-12-08T03:37:16.453Z,13.90